Meteo Giornale » Osservazioni meteo Stati Uniti (USA) » Provo
ore: 10:56 - Osservazioni Meteo Provo
Lat. 40° 13' N Lon. 111° 43' W Alt. 1369 metri s.l.m.
22 °C
Sereno
Temp. 24 Ore
13 °C
25 °C
Nord
0 Km/h
Dew point 13 °C
Umidità 56 %
Visibilità 14 Km
Il sole sorge alle ore 06:53
Il sole tramonta alle ore 20:00
| Data e Ora | Cielo e Fenomeni | T °C | DP °C | Um. % | Pres. hPa | Vis. km | Vento km/h | |
|---|---|---|---|---|---|---|---|---|
| Oggi h: 10:56 | Sereno | 22 | 13 | 56 | 1019 | 14 | N 0 | |
| Oggi h: 09:56 | Sereno | 21 | 12 | 56 | 1019 | 10 | N 5.5 | |
| Oggi h: 08:56 | Sereno | 19 | 12 | 63 | 1019 | 10 | N 5.5 | |
| Oggi h: 07:56 | Sereno | 16 | 11 | 72 | 1019 | 10 | N 5.5 | |
| Oggi h: 06:56 | Sereno | 14 | 11 | 82 | 1018 | 10 | N 0 | |
| Oggi h: 05:56 | Sereno | 17 | 9 | 59 | 1018 | 10 | N/NO 9.3 | |
| Oggi h: 04:56 | Sereno | 15 | 11 | 76 | 1019 | 10 | N 0 | |
| Oggi h: 03:56 | Sereno | 16 | 12 | 77 | 1018 | 10 | S/SE 7.4 | |
| Oggi h: 02:56 | Sereno | 13 | 12 | 93 | 1018 | 10 | N/NE 7.4 | |
| Oggi h: 01:56 | Sereno | 14 | 12 | 87 | 1018 | 10 | N 0 | |
| Oggi h: 00:56 | Sereno | 16 | 12 | 77 | 1018 | 10 | N 0 | |
| Ieri h: 23:56 | Sereno | 17 | 12 | 72 | 1018 | 10 | N 0 | |
| Ieri h: 22:56 | Sereno | 17 | 12 | 72 | 1018 | 10 | S/SE 13 | |
| Ieri h: 21:56 | Sereno | 17 | 13 | 77 | 1018 | 10 | S/SE 7.4 | |
| Ieri h: 20:56 | Sereno | 18 | 13 | 72 | 1017 | 10 | N 0 | |
| Ieri h: 19:56 | Sereno | 20 | 14 | 68 | 1017 | 10 | N 5.5 | |
| Ieri h: 19:29 | Sereno | 21 | 14 | 64 | 1017 | 10 | S/SE 11.1 | |
| Ieri h: 18:56 | Sereno | 21 | 13 | 60 | 1017 | 10 | N 0 | |
| Ieri h: 18:39 | Poco Nuvoloso | 21 | 13 | 60 | 1017 | 10 | SE 16.7 | |
| Ieri h: 18:04 | Temporale nelle vicinanze | 21 | 13 | 60 | 1017 | 10 | N 0 | |
| Ieri h: 17:56 | Temporale nelle vicinanze | 21 | 13 | 60 | 1017 | 10 | N 0 | |
| Ieri h: 17:28 | Temporale | 19 | 13 | 68 | 1017 | 10 | NE 13 | |
| Ieri h: 17:07 | Molto Nuvoloso | 20 | 13 | 64 | 1017 | 13 | E 16.7 | |
| Ieri h: 16:56 | Temporale | 21 | 14 | 64 | 1017 | 10 | E 13 | |
| Ieri h: 16:44 | Temporale | 22 | 14 | 60 | 1017 | 10 | S/SE 14.8 | |
| Ieri h: 16:12 | Temporale nelle vicinanze Pioggia | 24 | 12 | 47 | 1017 | 10 | N 7.4 | |
| Ieri h: 15:56 | Nuvoloso | 25 | 9 | 36 | 1017 | 10 | N 0 | |
| Ieri h: 14:56 | Nuvoloso | 24 | 13 | 50 | 1018 | 10 | N 5.5 | |
| Ieri h: 13:56 | Sereno | 25 | 14 | 50 | 1018 | 14 | S/SE 11.1 | |
| Ieri h: 12:56 | Poco Nuvoloso | 23 | 14 | 56 | 1019 | 10 | SE 14.8 | |
| Ieri h: 11:56 | Poco Nuvoloso | 22 | 15 | 64 | 1019 | 10 | SE 11.1 | |



